createdAt,value
2022-11-12T00:00:07.739Z,3.90
2022-11-12T00:02:56.208Z,4.32
2022-11-12T00:05:45.492Z,4.82
2022-11-12T00:08:33.604Z,4.55
2022-11-12T00:11:21.701Z,3.80
2022-11-12T00:14:10.239Z,3.72
2022-11-12T00:16:58.470Z,3.50
2022-11-12T00:19:46.876Z,3.55
2022-11-12T00:22:35.013Z,4.05
2022-11-12T00:25:23.401Z,3.33
2022-11-12T00:28:12.480Z,3.70
2022-11-12T00:31:01.559Z,4.05
2022-11-12T00:33:49.690Z,3.90
2022-11-12T00:36:38.044Z,4.65
2022-11-12T00:39:26.455Z,4.30
2022-11-12T00:42:15.215Z,4.47
2022-11-12T00:47:51.135Z,4.20
2022-11-12T00:50:39.096Z,4.72
2022-11-12T00:53:27.532Z,4.75
2022-11-12T00:56:15.646Z,4.47
2022-11-12T00:59:03.828Z,4.53
2022-11-12T01:01:52.199Z,4.00
2022-11-12T01:04:40.535Z,4.38
2022-11-12T01:07:29.596Z,3.67
2022-11-12T01:10:18.064Z,3.33
2022-11-12T01:13:06.427Z,4.25
2022-11-12T01:15:55.037Z,4.25
2022-11-12T01:18:43.849Z,4.43
2022-11-12T01:21:33.842Z,3.30
2022-11-12T01:24:22.048Z,4.13
2022-11-12T01:27:10.184Z,3.95
2022-11-12T01:29:58.226Z,3.97
2022-11-12T01:32:47.451Z,3.95
2022-11-12T01:35:35.353Z,3.70
2022-11-12T01:38:24.277Z,3.28
2022-11-12T01:41:35.150Z,3.78
2022-11-12T01:44:30.295Z,3.72
2022-11-12T01:47:27.111Z,4.20
2022-11-12T01:50:32.190Z,4.22
2022-11-12T01:53:21.402Z,4.15
2022-11-12T01:56:10.566Z,4.32
2022-11-12T01:59:24.753Z,4.35
2022-11-12T02:02:14.180Z,4.47
2022-11-12T02:05:03.652Z,3.55
2022-11-12T02:07:53.939Z,4.20
2022-11-12T02:10:42.542Z,3.70
2022-11-12T02:13:49.467Z,3.33
2022-11-12T02:16:42.294Z,3.65
2022-11-12T02:19:31.088Z,4.25
2022-11-12T02:22:18.974Z,4.32
2022-11-12T02:25:08.086Z,4.78
2022-11-12T02:27:57.686Z,3.95
2022-11-12T02:30:49.338Z,4.80
2022-11-12T02:33:37.454Z,4.90
2022-11-12T02:36:26.119Z,4.38
2022-11-12T02:39:14.089Z,4.50
2022-11-12T02:42:02.359Z,4.68
2022-11-12T02:47:38.364Z,3.95
2022-11-12T02:50:26.796Z,5.30
2022-11-12T02:53:15.173Z,4.32
2022-11-12T02:56:03.790Z,4.82
2022-11-12T02:58:51.925Z,5.28
2022-11-12T03:04:28.094Z,4.30
2022-11-12T03:07:16.336Z,4.35
2022-11-12T03:10:06.070Z,4.28
2022-11-12T03:12:54.629Z,4.35
2022-11-12T03:15:42.945Z,4.82
2022-11-12T03:18:31.314Z,5.05
2022-11-12T03:21:19.932Z,4.10
2022-11-12T03:24:08.923Z,4.30
2022-11-12T03:26:57.128Z,5.10
2022-11-12T03:32:33.159Z,4.90
2022-11-12T03:35:21.121Z,4.50
2022-11-12T03:38:09.815Z,4.35
2022-11-12T03:40:58.135Z,5.00
2022-11-12T03:43:46.436Z,4.80
2022-11-12T03:46:34.523Z,5.30
2022-11-12T03:49:22.682Z,5.75
2022-11-12T03:54:58.604Z,4.00
2022-11-12T03:57:48.891Z,5.10
2022-11-12T04:00:36.681Z,4.80
2022-11-12T04:03:24.644Z,5.22
2022-11-12T04:06:30.981Z,5.40
2022-11-12T04:09:19.316Z,5.25
2022-11-12T04:12:27.749Z,5.88
2022-11-12T04:15:15.903Z,5.95
2022-11-12T04:18:22.025Z,4.13
2022-11-12T04:21:28.718Z,4.97
2022-11-12T04:24:36.883Z,4.22
2022-11-12T04:27:31.945Z,4.03
2022-11-12T04:30:20.614Z,4.45
2022-11-12T04:33:11.187Z,4.80
2022-11-12T04:35:59.802Z,5.10
2022-11-12T04:38:47.875Z,5.15
2022-11-12T04:41:54.205Z,4.70
2022-11-12T04:45:01.040Z,5.28
2022-11-12T04:47:49.880Z,4.15
2022-11-12T04:50:38.431Z,5.05
2022-11-12T04:53:28.496Z,4.65
2022-11-12T04:56:16.322Z,3.75
2022-11-12T04:59:05.045Z,4.72
2022-11-12T05:01:53.581Z,4.43
2022-11-12T05:04:41.701Z,3.47
2022-11-12T05:10:18.000Z,5.10
2022-11-12T05:13:06.423Z,5.28
2022-11-12T05:15:54.601Z,4.55
2022-11-12T05:18:42.623Z,4.18
2022-11-12T05:21:49.580Z,4.00
2022-11-12T05:24:42.863Z,3.83
2022-11-12T05:27:31.282Z,4.35
2022-11-12T05:30:19.659Z,4.30
2022-11-12T05:33:07.950Z,4.28
2022-11-12T05:35:58.568Z,4.88
2022-11-12T05:38:47.214Z,3.70
2022-11-12T05:41:51.395Z,4.70
2022-11-12T05:44:43.655Z,4.50
2022-11-12T05:47:31.927Z,3.90
2022-11-12T05:50:20.146Z,4.00
2022-11-12T05:53:08.234Z,4.50
2022-11-12T05:56:02.105Z,4.22
2022-11-12T05:58:50.450Z,4.05
2022-11-12T06:01:45.984Z,3.90
2022-11-12T06:04:34.007Z,4.68
2022-11-12T06:07:22.202Z,4.32
2022-11-12T06:10:12.805Z,4.28
2022-11-12T06:13:04.571Z,4.15
2022-11-12T06:15:54.151Z,4.45
2022-11-12T06:18:41.979Z,4.20
2022-11-12T06:21:30.261Z,4.15
2022-11-12T06:24:19.176Z,3.97
2022-11-12T06:27:07.323Z,4.47
2022-11-12T06:29:55.697Z,4.68
2022-11-12T06:32:43.928Z,4.78
2022-11-12T06:35:32.262Z,4.47
2022-11-12T06:38:20.935Z,4.90
2022-11-12T06:41:11.663Z,4.63
2022-11-12T06:43:59.870Z,4.35
2022-11-12T06:46:48.120Z,4.55
2022-11-12T06:49:36.259Z,4.35
2022-11-12T06:52:24.848Z,5.32
2022-11-12T06:55:13.817Z,5.30
2022-11-12T06:58:02.212Z,4.68
2022-11-12T07:00:50.400Z,5.50
2022-11-12T07:03:39.523Z,5.85
2022-11-12T07:06:27.386Z,5.03
2022-11-12T07:09:15.671Z,5.07
2022-11-12T07:12:04.121Z,5.47
2022-11-12T07:14:53.682Z,4.85
2022-11-12T07:17:41.511Z,5.63
2022-11-12T07:20:30.060Z,5.10
2022-11-12T07:23:18.550Z,4.55
2022-11-12T07:26:09.950Z,4.70
2022-11-12T07:29:00.744Z,4.63
2022-11-12T07:31:49.432Z,5.03
2022-11-12T07:34:37.346Z,4.32
2022-11-12T07:37:25.941Z,3.88
2022-11-12T07:43:03.124Z,4.10
2022-11-12T07:45:51.047Z,5.00
2022-11-12T07:48:41.276Z,5.57
2022-11-12T07:51:30.951Z,4.68
2022-11-12T07:54:19.285Z,4.72
2022-11-12T07:59:55.144Z,4.57
2022-11-12T08:02:43.405Z,5.25
2022-11-12T08:05:31.652Z,5.15
2022-11-12T08:08:20.010Z,4.80
2022-11-12T08:11:08.357Z,4.60
2022-11-12T08:13:56.232Z,5.00
2022-11-12T08:16:44.790Z,4.75
2022-11-12T08:19:32.615Z,4.90
2022-11-12T08:22:20.982Z,4.70
2022-11-12T08:25:09.352Z,4.15
2022-11-12T08:27:59.921Z,5.03
2022-11-12T08:30:47.894Z,4.60
2022-11-12T08:33:37.047Z,4.53
2022-11-12T08:36:25.595Z,5.07
2022-11-12T08:39:13.570Z,4.90
2022-11-12T08:42:02.522Z,4.45
2022-11-12T08:44:50.747Z,5.63
2022-11-12T08:47:38.949Z,5.00
2022-11-12T08:50:27.716Z,6.18
2022-11-12T08:53:16.624Z,5.22
2022-11-12T08:56:04.863Z,5.20
2022-11-12T08:58:53.163Z,5.22
2022-11-12T09:01:41.584Z,5.03
2022-11-12T09:04:31.204Z,5.38
2022-11-12T09:07:48.196Z,5.05
2022-11-12T09:10:28.268Z,5.28
2022-11-12T09:13:18.350Z,5.30
2022-11-12T09:16:08.893Z,6.32
2022-11-12T09:19:01.391Z,4.57
2022-11-12T09:21:49.535Z,5.93
2022-11-12T09:24:37.907Z,4.63
2022-11-12T09:27:29.050Z,6.05
2022-11-12T09:30:17.978Z,6.10
2022-11-12T09:33:06.423Z,5.93
2022-11-12T09:35:56.620Z,5.78
2022-11-12T09:38:44.845Z,5.60
2022-11-12T09:41:42.399Z,6.32
2022-11-12T09:44:36.673Z,5.15
2022-11-12T09:47:31.607Z,5.13
2022-11-12T09:50:23.229Z,5.00
2022-11-12T09:53:18.927Z,6.03
2022-11-12T09:56:14.654Z,5.18
2022-11-12T09:59:02.672Z,4.85
2022-11-12T10:02:24.602Z,5.32
2022-11-12T10:05:32.488Z,5.10
2022-11-12T10:08:42.242Z,6.25
2022-11-12T10:12:04.521Z,5.03
2022-11-12T10:15:39.025Z,5.20
2022-11-12T10:18:48.030Z,4.97
2022-11-12T10:21:56.996Z,5.35
2022-11-12T10:24:47.067Z,4.95
2022-11-12T10:27:41.744Z,4.75
2022-11-12T10:30:29.984Z,5.22
2022-11-12T10:33:18.360Z,4.90
2022-11-12T10:36:36.853Z,4.95
2022-11-12T10:42:27.096Z,5.90
2022-11-12T10:45:23.538Z,4.65
2022-11-12T10:48:35.675Z,4.28
2022-11-12T10:54:40.856Z,4.60
2022-11-12T10:57:29.434Z,4.68
2022-11-12T11:00:21.208Z,5.13
2022-11-12T11:03:23.122Z,3.85
2022-11-12T11:06:17.732Z,7.93
2022-11-12T11:09:14.999Z,5.22
2022-11-12T11:12:03.894Z,4.53
2022-11-12T11:15:19.571Z,4.95
2022-11-12T11:18:09.844Z,4.10
2022-11-12T11:21:03.735Z,4.05
2022-11-12T11:23:59.879Z,3.67
2022-11-12T11:27:25.861Z,4.72
2022-11-12T11:30:16.840Z,4.13
2022-11-12T11:33:20.217Z,3.78
2022-11-12T11:36:20.079Z,4.15
2022-11-12T11:39:38.502Z,3.90
2022-11-12T11:42:44.550Z,4.00
2022-11-12T11:46:10.798Z,4.22
2022-11-12T11:49:22.923Z,4.25
2022-11-12T11:52:47.906Z,4.25
2022-11-12T11:55:56.085Z,7.03
2022-11-12T11:59:04.498Z,4.88
2022-11-12T12:02:04.462Z,4.22
2022-11-12T12:05:14.853Z,3.90
2022-11-12T12:08:21.127Z,3.83
2022-11-12T12:11:18.177Z,3.70
2022-11-12T12:14:28.573Z,3.65
2022-11-12T12:17:47.296Z,5.55
2022-11-12T12:21:06.524Z,3.67
2022-11-12T12:24:18.503Z,2.95
2022-11-12T12:27:23.326Z,3.70
2022-11-12T12:30:24.823Z,3.90
2022-11-12T12:33:31.166Z,3.00
2022-11-12T12:36:51.122Z,2.60
2022-11-12T12:39:53.334Z,3.47
2022-11-12T12:43:02.350Z,2.88
2022-11-12T12:45:50.713Z,3.55
2022-11-12T12:48:44.562Z,3.15
2022-11-12T12:51:35.050Z,3.00
2022-11-12T12:54:40.918Z,2.58
2022-11-12T12:57:38.948Z,2.67
2022-11-12T13:00:36.264Z,2.90
2022-11-12T13:03:42.946Z,4.10
2022-11-12T13:06:33.559Z,2.88
2022-11-12T13:09:26.792Z,2.58
2022-11-12T13:12:18.935Z,2.80
2022-11-12T13:15:15.091Z,2.67
2022-11-12T13:18:03.198Z,2.70
2022-11-12T13:21:22.051Z,2.85
2022-11-12T13:24:15.356Z,2.80
2022-11-12T13:27:04.607Z,2.60
2022-11-12T13:29:53.915Z,2.88
2022-11-12T13:32:48.447Z,2.60
2022-11-12T13:35:39.367Z,2.75
2022-11-12T13:38:40.665Z,2.70
2022-11-12T13:42:01.733Z,2.83
2022-11-12T13:44:55.835Z,2.42
2022-11-12T13:47:45.178Z,2.92
2022-11-12T13:50:37.884Z,2.75
2022-11-12T13:53:32.385Z,2.60
2022-11-12T13:56:35.689Z,2.63
2022-11-12T13:59:26.578Z,2.72
2022-11-12T14:02:28.338Z,2.78
2022-11-12T14:05:21.883Z,2.55
2022-11-12T14:08:33.465Z,3.30
2022-11-12T14:11:45.900Z,2.80
2022-11-12T14:15:06.442Z,2.42
2022-11-12T14:18:15.950Z,2.83
2022-11-12T14:21:12.948Z,2.45
2022-11-12T14:24:06.456Z,3.05
2022-11-12T14:26:55.153Z,3.58
2022-11-12T14:29:44.378Z,2.50
2022-11-12T14:32:38.154Z,2.78
2022-11-12T14:38:31.247Z,2.80
2022-11-12T14:41:28.495Z,2.53
2022-11-12T14:44:24.610Z,2.40
2022-11-12T14:47:12.855Z,3.13
2022-11-12T14:50:01.331Z,2.50
2022-11-12T14:52:53.455Z,2.55
2022-11-12T14:55:45.601Z,4.07
2022-11-12T14:58:36.367Z,2.60
2022-11-12T15:02:21.656Z,2.03
2022-11-12T15:05:00.188Z,2.38
2022-11-12T15:08:12.325Z,2.88
2022-11-12T15:11:21.685Z,2.50
2022-11-12T15:14:26.135Z,2.78
2022-11-12T15:17:26.286Z,2.35
2022-11-12T15:20:20.877Z,2.65
2022-11-12T15:23:23.361Z,2.22
2022-11-12T15:26:24.152Z,2.80
2022-11-12T15:29:12.363Z,2.15
2022-11-12T15:32:26.670Z,2.40
2022-11-12T15:35:27.104Z,2.60
2022-11-12T15:38:32.674Z,2.45
2022-11-12T15:41:29.828Z,2.58
2022-11-12T15:44:18.462Z,2.50
2022-11-12T15:47:07.211Z,3.65
2022-11-12T15:49:58.791Z,2.97
2022-11-12T15:52:47.245Z,4.95
2022-11-12T15:55:36.559Z,15.95
2022-11-12T15:58:36.820Z,4.70
2022-11-12T16:01:24.886Z,3.75
2022-11-12T16:04:16.241Z,2.83
2022-11-12T16:07:07.930Z,2.70
2022-11-12T16:09:56.270Z,2.72
2022-11-12T16:12:45.947Z,2.50
2022-11-12T16:15:34.333Z,2.67
2022-11-12T16:18:22.787Z,2.53
2022-11-12T16:21:11.423Z,2.70
2022-11-12T16:24:00.035Z,2.60
2022-11-12T16:26:48.108Z,2.50
2022-11-12T16:29:37.299Z,2.80
2022-11-12T16:32:25.096Z,2.53
2022-11-12T16:35:13.326Z,2.72
2022-11-12T16:38:01.215Z,2.35
2022-11-12T16:40:49.445Z,2.60
2022-11-12T16:43:37.663Z,2.80
2022-11-12T16:46:37.254Z,2.70
2022-11-12T16:52:14.004Z,2.85
2022-11-12T16:55:04.813Z,2.55
2022-11-12T16:57:53.412Z,2.70
2022-11-12T17:00:51.305Z,3.10
2022-11-12T17:03:40.044Z,2.90
2022-11-12T17:06:48.353Z,2.78
2022-11-12T17:09:37.224Z,2.70
2022-11-12T17:12:25.295Z,2.70
2022-11-12T17:15:13.563Z,2.90
2022-11-12T17:18:01.911Z,2.50
2022-11-12T17:20:51.444Z,2.67
2022-11-12T17:23:40.823Z,2.60
2022-11-12T17:26:30.410Z,2.60
2022-11-12T17:29:18.545Z,2.88
2022-11-12T17:32:11.289Z,2.70
2022-11-12T17:35:23.552Z,2.63
2022-11-12T17:38:19.841Z,2.58
2022-11-12T17:41:08.989Z,2.40
2022-11-12T17:43:59.831Z,2.50
2022-11-12T17:46:49.783Z,2.90
2022-11-12T17:49:38.176Z,3.10
2022-11-12T17:52:25.853Z,2.50
2022-11-12T17:55:14.441Z,2.80
2022-11-12T17:58:02.359Z,2.45
2022-11-12T18:00:52.818Z,2.45
2022-11-12T18:04:00.578Z,2.70
2022-11-12T18:06:49.022Z,2.28
2022-11-12T18:09:37.533Z,2.35
2022-11-12T18:12:26.501Z,2.97
2022-11-12T18:15:14.981Z,2.92
2022-11-12T18:18:05.468Z,2.50
2022-11-12T18:20:53.407Z,2.67
2022-11-12T18:23:44.697Z,2.70
2022-11-12T18:26:33.733Z,2.67
2022-11-12T18:29:22.381Z,2.65
2022-11-12T18:32:10.875Z,2.10
2022-11-12T18:34:59.548Z,2.80
2022-11-12T18:37:47.889Z,2.67
2022-11-12T18:40:36.134Z,2.70
2022-11-12T18:43:24.630Z,3.00
2022-11-12T18:46:14.016Z,3.15
2022-11-12T18:49:02.121Z,3.40
2022-11-12T18:51:50.936Z,3.40
2022-11-12T18:54:39.085Z,3.30
2022-11-12T18:57:27.656Z,3.17
2022-11-12T19:00:16.886Z,3.83
2022-11-12T19:03:05.601Z,3.75
2022-11-12T19:06:00.310Z,3.53
2022-11-12T19:08:49.015Z,5.05
2022-11-12T19:11:38.286Z,4.28
2022-11-12T19:14:26.984Z,3.58
2022-11-12T19:17:15.242Z,3.63
2022-11-12T19:20:03.783Z,3.35
2022-11-12T19:22:51.896Z,3.83
2022-11-12T19:25:40.364Z,3.63
2022-11-12T19:28:29.699Z,3.40
2022-11-12T19:31:20.830Z,3.17
2022-11-12T19:34:09.148Z,3.30
2022-11-12T19:37:26.656Z,3.28
2022-11-12T19:40:06.695Z,3.25
2022-11-12T19:42:55.087Z,3.10
2022-11-12T19:45:43.467Z,2.97
2022-11-12T19:48:32.309Z,3.97
2022-11-12T19:51:20.545Z,2.88
2022-11-12T19:54:09.598Z,2.95
2022-11-12T19:56:57.567Z,3.30
2022-11-12T19:59:49.075Z,9.15
2022-11-12T20:02:37.519Z,3.85
2022-11-12T20:05:26.283Z,3.53
2022-11-12T20:08:14.539Z,4.15
2022-11-12T20:11:04.241Z,3.72
2022-11-12T20:13:55.063Z,4.22
2022-11-12T20:16:43.097Z,3.80
2022-11-12T20:19:31.544Z,4.20
2022-11-12T20:22:19.863Z,4.40
2022-11-12T20:25:08.359Z,3.42
2022-11-12T20:27:57.025Z,3.55
2022-11-12T20:30:46.270Z,3.70
2022-11-12T20:33:40.853Z,3.08
2022-11-12T20:36:33.380Z,3.25
2022-11-12T20:39:21.547Z,3.78
2022-11-12T20:42:09.798Z,3.67
2022-11-12T20:44:58.086Z,3.40
2022-11-12T20:47:46.005Z,3.30
2022-11-12T20:50:34.558Z,3.00
2022-11-12T20:53:22.812Z,3.88
2022-11-12T20:56:13.667Z,3.20
2022-11-12T20:59:01.807Z,3.45
2022-11-12T21:01:50.392Z,4.05
2022-11-12T21:04:39.107Z,3.53
2022-11-12T21:07:28.312Z,3.92
2022-11-12T21:10:16.881Z,3.78
2022-11-12T21:13:04.932Z,3.28
2022-11-12T21:15:53.909Z,4.05
2022-11-12T21:18:42.707Z,4.15
2022-11-12T21:21:31.769Z,3.58
2022-11-12T21:24:29.846Z,4.03
2022-11-12T21:27:18.131Z,4.05
2022-11-12T21:30:07.098Z,3.95
2022-11-12T21:32:55.978Z,4.18
2022-11-12T21:35:45.402Z,3.70
2022-11-12T21:38:34.131Z,3.80
2022-11-12T21:41:24.638Z,4.15
2022-11-12T21:44:12.690Z,3.72
2022-11-12T21:47:00.836Z,3.80
2022-11-12T21:49:48.664Z,4.70
2022-11-12T21:52:37.308Z,3.90
2022-11-12T21:55:25.436Z,4.30
2022-11-12T21:58:13.709Z,4.20
2022-11-12T22:01:13.783Z,4.35
2022-11-12T22:04:02.549Z,4.13
2022-11-12T22:06:50.671Z,4.70
2022-11-12T22:09:39.010Z,5.03
2022-11-12T22:12:28.259Z,4.80
2022-11-12T22:15:20.059Z,4.75
2022-11-12T22:18:12.014Z,4.68
2022-11-12T22:21:06.356Z,4.43
2022-11-12T22:26:42.916Z,4.10
2022-11-12T22:29:31.402Z,5.35
2022-11-12T22:32:19.712Z,4.70
2022-11-12T22:35:08.500Z,5.43
2022-11-12T22:37:56.705Z,5.07
2022-11-12T22:40:44.669Z,4.85
2022-11-12T22:43:33.899Z,5.78
2022-11-12T22:46:27.409Z,5.28
2022-11-12T22:52:03.438Z,4.97
2022-11-12T22:54:52.870Z,4.68
2022-11-12T22:57:41.056Z,4.85
2022-11-12T23:00:33.826Z,4.80
2022-11-12T23:03:21.973Z,5.13
2022-11-12T23:06:10.322Z,5.05
2022-11-12T23:09:03.150Z,4.75
2022-11-12T23:11:51.861Z,5.40
2022-11-12T23:14:40.822Z,5.95
2022-11-12T23:17:29.745Z,5.15
2022-11-12T23:20:18.189Z,5.65
2022-11-12T23:23:06.520Z,6.15
2022-11-12T23:25:54.627Z,6.82
2022-11-12T23:28:43.244Z,6.25
2022-11-12T23:31:32.486Z,6.03
2022-11-12T23:34:22.040Z,5.38
2022-11-12T23:37:10.066Z,6.05
2022-11-12T23:39:58.003Z,7.10
2022-11-12T23:42:46.617Z,5.43
2022-11-12T23:45:40.227Z,7.13
2022-11-12T23:48:28.465Z,6.13
2022-11-12T23:51:22.204Z,6.57
2022-11-12T23:54:12.135Z,5.88
2022-11-12T23:57:00.617Z,6.97
2022-11-12T23:59:48.833Z,5.10
